createdAt,value
2022-12-18T00:04:02.521Z,-5.20
2022-12-18T00:06:52.902Z,-5.20
2022-12-18T00:09:40.152Z,-5.30
2022-12-18T00:12:31.580Z,-5.30
2022-12-18T00:15:23.586Z,-5.20
2022-12-18T00:17:55.320Z,-5.20
2022-12-18T00:20:28.436Z,-5.00
2022-12-18T00:23:01.552Z,-5.20
2022-12-18T00:28:16.243Z,-5.10
2022-12-18T00:31:13.791Z,-5.30
2022-12-18T00:33:55.178Z,-5.30
2022-12-18T00:36:42.308Z,-5.30
2022-12-18T00:39:14.842Z,-5.30
2022-12-18T00:42:06.409Z,-5.20
2022-12-18T00:47:33.065Z,-5.30
2022-12-18T00:50:08.220Z,-5.40
2022-12-18T00:55:40.847Z,-5.30
2022-12-18T00:58:19.775Z,-5.40
2022-12-18T01:00:55.867Z,-5.50
2022-12-18T01:03:31.708Z,-5.40
2022-12-18T01:06:12.888Z,-5.50
2022-12-18T01:11:40.100Z,-5.60
2022-12-18T01:14:19.942Z,-5.60
2022-12-18T01:19:45.011Z,-5.60
2022-12-18T01:22:17.926Z,-5.60
2022-12-18T01:24:54.886Z,-5.50
2022-12-18T01:27:27.367Z,-5.50
2022-12-18T01:30:11.663Z,-5.60
2022-12-18T01:32:55.666Z,-5.70
2022-12-18T01:35:38.775Z,-5.60
2022-12-18T01:38:19.786Z,-5.60
2022-12-18T01:44:06.651Z,-5.70
2022-12-18T01:46:42.741Z,-5.70
2022-12-18T01:49:18.067Z,-5.70
2022-12-18T01:51:53.731Z,-5.70
2022-12-18T01:54:56.617Z,-5.70
2022-12-18T01:57:27.532Z,-5.70
2022-12-18T02:00:05.655Z,-5.90
2022-12-18T02:02:39.413Z,-5.70
2022-12-18T02:05:11.050Z,-5.70
2022-12-18T02:07:58.919Z,-5.80
2022-12-18T02:10:43.238Z,-5.80
2022-12-18T02:13:49.483Z,-5.80
2022-12-18T02:16:47.428Z,-5.80
2022-12-18T02:19:32.278Z,-5.80
2022-12-18T02:22:29.991Z,-5.80
2022-12-18T02:28:20.859Z,-5.80
2022-12-18T02:31:09.348Z,-5.80
2022-12-18T02:33:44.762Z,-5.80
2022-12-18T02:36:15.952Z,-5.90
2022-12-18T02:39:11.269Z,-5.90
2022-12-18T02:41:43.183Z,-5.50
2022-12-18T02:44:29.654Z,-5.90
2022-12-18T02:47:18.332Z,-5.70
2022-12-18T02:49:52.671Z,-5.80
2022-12-18T02:52:32.559Z,-5.90
2022-12-18T02:55:22.743Z,-5.50
2022-12-18T02:57:57.019Z,-5.90
2022-12-18T03:00:56.411Z,-5.90
2022-12-18T03:06:29.364Z,-6.00
2022-12-18T03:09:11.608Z,-6.00
2022-12-18T03:12:15.528Z,-5.90
2022-12-18T03:15:17.223Z,-5.90
2022-12-18T03:18:01.409Z,-5.90
2022-12-18T03:20:37.998Z,-5.90
2022-12-18T03:23:20.772Z,-5.90
2022-12-18T03:26:03.037Z,-5.90
2022-12-18T03:28:49.315Z,-5.90
2022-12-18T03:31:24.414Z,-5.90
2022-12-18T03:34:14.065Z,-5.80
2022-12-18T03:37:11.145Z,-5.90
2022-12-18T03:39:56.901Z,-6.00
2022-12-18T03:42:40.020Z,-5.90
2022-12-18T03:45:29.934Z,-6.00
2022-12-18T03:48:22.342Z,-6.00
2022-12-18T03:50:59.800Z,-5.90
2022-12-18T03:53:38.109Z,-5.90
2022-12-18T03:56:18.733Z,-5.90
2022-12-18T03:58:51.055Z,-5.90
2022-12-18T04:01:22.224Z,-5.90
2022-12-18T04:04:07.635Z,-6.00
2022-12-18T04:06:46.102Z,-5.90
2022-12-18T04:09:20.220Z,-6.10
2022-12-18T04:11:58.537Z,-6.10
2022-12-18T04:14:53.694Z,-6.00
2022-12-18T04:17:27.992Z,-6.00
2022-12-18T04:19:59.799Z,-5.90
2022-12-18T04:22:50.552Z,-5.90
2022-12-18T04:25:21.557Z,-6.00
2022-12-18T04:27:55.988Z,-6.10
2022-12-18T04:30:39.910Z,-6.20
2022-12-18T04:33:23.990Z,-6.20
2022-12-18T04:35:56.364Z,-6.10
2022-12-18T04:38:30.396Z,-6.20
2022-12-18T04:41:00.112Z,-6.20
2022-12-18T04:43:29.814Z,-6.10
2022-12-18T04:46:10.108Z,-6.20
2022-12-18T04:48:41.052Z,-6.20
2022-12-18T04:51:20.922Z,-6.30
2022-12-18T04:53:59.247Z,-6.20
2022-12-18T04:56:28.305Z,-6.20
2022-12-18T04:59:19.796Z,-6.20
2022-12-18T05:01:55.325Z,-6.20
2022-12-18T05:04:35.337Z,-6.20
2022-12-18T05:07:06.111Z,-6.20
2022-12-18T05:09:39.791Z,-6.30
2022-12-18T05:14:58.206Z,-6.30
2022-12-18T05:17:35.550Z,-6.20
2022-12-18T05:20:09.251Z,-6.20
2022-12-18T05:22:52.546Z,-6.10
2022-12-18T05:25:29.902Z,-6.10
2022-12-18T05:28:02.171Z,-6.20
2022-12-18T05:33:36.235Z,-6.20
2022-12-18T05:36:14.767Z,-6.20
2022-12-18T05:41:37.054Z,-6.20
2022-12-18T05:44:10.121Z,-6.10
2022-12-18T05:46:39.911Z,-6.10
2022-12-18T05:49:20.894Z,-6.10
2022-12-18T05:51:52.748Z,-6.10
2022-12-18T05:54:27.928Z,-6.10
2022-12-18T05:57:01.743Z,-6.10
2022-12-18T05:59:50.661Z,-6.10
2022-12-18T06:02:35.136Z,-6.00
2022-12-18T06:05:40.424Z,-6.00
2022-12-18T06:08:31.278Z,-6.10
2022-12-18T06:11:02.253Z,-6.10
2022-12-18T06:13:36.939Z,-6.20
2022-12-18T06:16:07.529Z,-6.10
2022-12-18T06:18:40.700Z,-6.10
2022-12-18T06:21:10.337Z,-6.10
2022-12-18T06:24:01.036Z,-6.10
2022-12-18T06:26:32.472Z,-6.10
2022-12-18T06:29:06.233Z,-6.10
2022-12-18T06:31:35.744Z,-6.10
2022-12-18T06:34:15.858Z,-6.10
2022-12-18T06:36:56.054Z,-6.20
2022-12-18T06:39:37.391Z,-6.10
2022-12-18T06:42:08.956Z,-6.10
2022-12-18T06:44:50.997Z,-6.00
2022-12-18T06:47:24.702Z,-6.10
2022-12-18T06:49:59.629Z,-6.10
2022-12-18T06:52:41.419Z,-6.10
2022-12-18T06:55:17.191Z,-6.20
2022-12-18T06:57:53.416Z,-6.20
2022-12-18T07:00:33.498Z,-6.20
2022-12-18T07:03:06.898Z,-6.30
2022-12-18T07:05:36.011Z,-6.30
2022-12-18T07:08:05.111Z,-6.20
2022-12-18T07:10:43.241Z,-6.20
2022-12-18T07:13:25.946Z,-6.20
2022-12-18T07:15:59.933Z,-6.10
2022-12-18T07:18:32.454Z,-6.20
2022-12-18T07:21:15.125Z,-6.20
2022-12-18T07:23:50.320Z,-6.30
2022-12-18T07:26:39.121Z,-6.20
2022-12-18T07:29:27.186Z,-6.20
2022-12-18T07:32:05.738Z,-6.20
2022-12-18T07:34:40.479Z,-6.20
2022-12-18T07:37:33.921Z,-6.20
2022-12-18T07:40:10.943Z,-6.10
2022-12-18T07:42:49.050Z,-6.20
2022-12-18T07:45:23.802Z,-6.20
2022-12-18T07:47:59.506Z,-6.20
2022-12-18T07:53:33.202Z,-6.20
2022-12-18T07:59:03.748Z,-6.10
2022-12-18T08:01:54.356Z,-6.00
2022-12-18T08:04:26.123Z,-5.90
2022-12-18T08:07:05.611Z,-5.90
2022-12-18T08:09:47.836Z,-5.90
2022-12-18T08:12:37.285Z,-5.80
2022-12-18T08:15:37.794Z,-5.70
2022-12-18T08:18:14.512Z,-5.60
2022-12-18T08:20:58.376Z,-5.60
2022-12-18T08:23:43.610Z,-5.60
2022-12-18T08:26:16.135Z,-5.60
2022-12-18T08:28:48.919Z,-5.50
2022-12-18T08:31:23.777Z,-5.50
2022-12-18T08:33:58.663Z,-5.40
2022-12-18T08:36:35.164Z,-5.40
2022-12-18T08:39:13.562Z,-5.20
2022-12-18T08:42:09.889Z,-5.20
2022-12-18T08:44:48.653Z,-5.20
2022-12-18T08:50:09.121Z,-5.20
2022-12-18T08:52:45.051Z,-5.10
2022-12-18T08:55:17.949Z,-4.80
2022-12-18T08:58:07.474Z,-5.00
2022-12-18T09:01:07.319Z,-4.90
2022-12-18T09:03:39.157Z,-4.80
2022-12-18T09:06:18.495Z,-4.90
2022-12-18T09:08:56.426Z,-4.90
2022-12-18T09:11:30.694Z,-4.90
2022-12-18T09:14:06.230Z,-4.70
2022-12-18T09:16:36.666Z,-4.70
2022-12-18T09:19:22.375Z,-4.70
2022-12-18T09:21:53.607Z,-4.70
2022-12-18T09:24:30.759Z,-4.60
2022-12-18T09:27:04.808Z,-4.60
2022-12-18T09:29:52.430Z,-4.60
2022-12-18T09:35:18.686Z,-4.60
2022-12-18T09:38:05.430Z,-4.60
2022-12-18T09:41:08.279Z,-4.60
2022-12-18T09:43:53.424Z,-4.70
2022-12-18T09:46:30.398Z,-4.70
2022-12-18T09:49:12.808Z,-4.70
2022-12-18T09:51:49.136Z,-4.60
2022-12-18T09:57:13.833Z,-4.50
2022-12-18T09:59:59.087Z,-4.50
2022-12-18T10:02:41.739Z,-4.40
2022-12-18T10:05:17.334Z,-4.10
2022-12-18T10:07:54.418Z,-4.00
2022-12-18T10:11:06.723Z,-3.90
2022-12-18T10:13:40.666Z,-3.70
2022-12-18T10:16:32.466Z,-3.70
2022-12-18T10:19:16.538Z,-3.70
2022-12-18T10:21:50.577Z,-3.60
2022-12-18T10:24:36.625Z,-3.70
2022-12-18T10:27:18.344Z,-3.60
2022-12-18T10:29:51.978Z,-3.50
2022-12-18T10:32:23.770Z,-3.50
2022-12-18T10:35:15.704Z,-3.20
2022-12-18T10:38:04.808Z,-3.30
2022-12-18T10:41:04.541Z,-3.40
2022-12-18T10:43:54.257Z,-3.50
2022-12-18T10:46:28.245Z,-3.40
2022-12-18T10:49:11.550Z,-3.40
2022-12-18T10:51:47.828Z,-3.40
2022-12-18T10:54:24.935Z,-3.50
2022-12-18T10:57:25.678Z,-3.50
2022-12-18T11:00:27.746Z,-3.40
2022-12-18T11:03:11.441Z,-3.50
2022-12-18T11:06:03.229Z,-3.40
2022-12-18T11:08:38.544Z,-3.40
2022-12-18T11:11:22.980Z,-3.20
2022-12-18T11:14:09.998Z,-3.10
2022-12-18T11:19:45.690Z,-2.90
2022-12-18T11:22:44.327Z,-2.70
2022-12-18T11:25:35.976Z,-2.90
2022-12-18T11:28:12.609Z,-3.10
2022-12-18T11:31:01.117Z,-3.10
2022-12-18T11:33:37.503Z,-3.10
2022-12-18T11:36:18.541Z,-3.00
2022-12-18T11:38:53.912Z,-2.80
2022-12-18T11:41:46.671Z,-2.80
2022-12-18T11:44:38.884Z,-2.80
2022-12-18T11:47:12.688Z,-2.80
2022-12-18T11:49:48.750Z,-2.70
2022-12-18T11:52:24.750Z,-2.60
2022-12-18T11:54:59.100Z,-2.60
2022-12-18T11:57:45.245Z,-2.70
2022-12-18T12:00:29.855Z,-2.60
2022-12-18T12:03:27.789Z,-2.50
2022-12-18T12:06:12.585Z,-2.40
2022-12-18T12:08:54.685Z,-2.40
2022-12-18T12:11:42.951Z,-2.50
2022-12-18T12:14:26.220Z,-2.60
2022-12-18T12:17:13.199Z,-2.70
2022-12-18T12:19:48.356Z,-2.70
2022-12-18T12:22:23.976Z,-2.70
2022-12-18T12:25:21.470Z,-2.70
2022-12-18T12:27:56.531Z,-2.70
2022-12-18T12:30:33.231Z,-2.50
2022-12-18T12:33:21.599Z,-2.40
2022-12-18T12:35:59.463Z,-2.40
2022-12-18T12:38:35.447Z,-2.30
2022-12-18T12:41:14.898Z,-2.30
2022-12-18T12:43:50.724Z,-2.30
2022-12-18T12:46:26.592Z,-2.40
2022-12-18T12:49:03.947Z,-2.40
2022-12-18T12:51:39.943Z,-2.50
2022-12-18T12:54:39.140Z,-2.60
2022-12-18T12:57:17.348Z,-2.70
2022-12-18T12:59:54.570Z,-2.60
2022-12-18T13:02:35.197Z,-2.70
2022-12-18T13:05:35.765Z,-2.60
2022-12-18T13:08:26.502Z,-2.60
2022-12-18T13:11:14.800Z,-2.60
2022-12-18T13:14:17.684Z,-2.60
2022-12-18T13:17:03.811Z,-2.50
2022-12-18T13:19:40.941Z,-2.60
2022-12-18T13:22:38.197Z,-2.70
2022-12-18T13:25:23.454Z,-2.70
2022-12-18T13:28:02.119Z,-2.80
2022-12-18T13:34:25.578Z,-2.80
2022-12-18T13:40:03.846Z,-2.90
2022-12-18T13:43:02.956Z,-2.90
2022-12-18T13:46:12.359Z,-2.90
2022-12-18T13:49:15.835Z,-2.90
2022-12-18T13:51:47.216Z,-2.90
2022-12-18T13:54:32.316Z,-3.00
2022-12-18T13:57:02.696Z,-3.00
2022-12-18T13:59:42.611Z,-3.00
2022-12-18T14:02:20.011Z,-3.10
2022-12-18T14:04:58.895Z,-3.10
2022-12-18T14:07:49.212Z,-3.10
2022-12-18T14:10:49.117Z,-3.20
2022-12-18T14:13:32.959Z,-3.20
2022-12-18T14:16:13.619Z,-3.20
2022-12-18T14:19:18.242Z,-3.20
2022-12-18T14:21:55.009Z,-3.30
2022-12-18T14:24:37.641Z,-3.30
2022-12-18T14:27:22.751Z,-3.30
2022-12-18T14:29:56.276Z,-3.30
2022-12-18T14:32:28.374Z,-3.30
2022-12-18T14:35:26.117Z,-3.30
2022-12-18T14:37:57.296Z,-3.40
2022-12-18T14:40:29.564Z,-3.40
2022-12-18T14:43:07.346Z,-3.40
2022-12-18T14:45:45.256Z,-3.40
2022-12-18T14:48:23.086Z,-3.40
2022-12-18T14:51:09.173Z,-3.50
2022-12-18T14:53:43.628Z,-3.50
2022-12-18T14:57:01.000Z,-3.50
2022-12-18T14:59:33.208Z,-3.50
2022-12-18T15:02:16.335Z,-3.50
2022-12-18T15:05:13.233Z,-3.50
2022-12-18T15:07:49.752Z,-3.60
2022-12-18T15:13:15.738Z,-3.50
2022-12-18T15:15:52.359Z,-3.40
2022-12-18T15:18:32.892Z,-3.40
2022-12-18T15:21:17.627Z,-3.50
2022-12-18T15:23:57.335Z,-3.50
2022-12-18T15:26:51.620Z,-3.40
2022-12-18T15:29:32.109Z,-3.40
2022-12-18T15:32:13.271Z,-3.50
2022-12-18T15:34:45.116Z,-3.50
2022-12-18T15:37:17.547Z,-3.60
2022-12-18T15:40:03.727Z,-3.50
2022-12-18T15:42:52.843Z,-3.50
2022-12-18T15:45:23.928Z,-3.60
2022-12-18T15:47:59.499Z,-3.60
2022-12-18T15:50:34.480Z,-3.60
2022-12-18T15:53:13.935Z,-3.60
2022-12-18T15:56:02.814Z,-3.60
2022-12-18T15:58:36.382Z,-3.60
2022-12-18T16:01:13.768Z,-3.70
2022-12-18T16:03:59.150Z,-3.70
2022-12-18T16:06:51.166Z,-3.70
2022-12-18T16:09:42.400Z,-3.70
2022-12-18T16:12:18.942Z,-3.80
2022-12-18T16:14:57.578Z,-3.80
2022-12-18T16:17:31.208Z,-3.80
2022-12-18T16:20:05.470Z,-3.80
2022-12-18T16:22:56.521Z,-3.80
2022-12-18T16:25:42.929Z,-3.80
2022-12-18T16:28:48.602Z,-3.90
2022-12-18T16:31:33.409Z,-3.80
2022-12-18T16:34:41.635Z,-3.80
2022-12-18T16:37:16.051Z,-3.80
2022-12-18T16:39:48.275Z,-3.80
2022-12-18T16:45:12.376Z,-3.80
2022-12-18T16:47:49.317Z,-3.90
2022-12-18T16:50:24.501Z,-3.90
2022-12-18T16:53:17.096Z,-3.90
2022-12-18T16:56:02.322Z,-4.00
2022-12-18T17:01:42.222Z,-4.10
2022-12-18T17:04:16.476Z,-4.00
2022-12-18T17:06:59.265Z,-4.00
2022-12-18T17:09:31.256Z,-4.00
2022-12-18T17:12:06.997Z,-3.90
2022-12-18T17:14:47.831Z,-3.90
2022-12-18T17:17:21.930Z,-3.90
2022-12-18T17:19:54.160Z,-3.90
2022-12-18T17:22:26.230Z,-3.90
2022-12-18T17:24:59.929Z,-3.90
2022-12-18T17:27:49.767Z,-3.90
2022-12-18T17:30:36.342Z,-3.80
2022-12-18T17:33:07.569Z,-3.80
2022-12-18T17:35:42.633Z,-3.80
2022-12-18T17:38:14.955Z,-3.80
2022-12-18T17:40:57.624Z,-3.80
2022-12-18T17:43:36.575Z,-3.80
2022-12-18T17:46:20.246Z,-3.80
2022-12-18T17:51:50.096Z,-3.80
2022-12-18T17:54:29.757Z,-3.70
2022-12-18T17:57:03.682Z,-3.70
2022-12-18T17:59:35.648Z,-3.80
2022-12-18T18:02:06.192Z,-3.70
2022-12-18T18:04:43.054Z,-3.70
2022-12-18T18:07:19.545Z,-3.60
2022-12-18T18:10:03.649Z,-3.60
2022-12-18T18:12:56.177Z,-3.60
2022-12-18T18:15:38.835Z,-3.60
2022-12-18T18:18:14.245Z,-3.50
2022-12-18T18:20:48.183Z,-3.50
2022-12-18T18:26:37.646Z,-3.40
2022-12-18T18:29:23.695Z,-3.50
2022-12-18T18:31:58.006Z,-3.40
2022-12-18T18:34:56.185Z,-3.20
2022-12-18T18:37:33.614Z,-3.40
2022-12-18T18:40:17.600Z,-3.30
2022-12-18T18:43:01.295Z,-3.40
2022-12-18T18:48:25.363Z,-3.40
2022-12-18T18:51:11.086Z,-3.40
2022-12-18T18:53:47.307Z,-3.30
2022-12-18T18:59:32.324Z,-3.20
2022-12-18T19:02:19.717Z,-3.20
2022-12-18T19:04:54.003Z,-3.20
2022-12-18T19:07:31.448Z,-3.10
2022-12-18T19:10:21.288Z,-3.10
2022-12-18T19:13:09.320Z,-3.00
2022-12-18T19:15:57.266Z,-3.10
2022-12-18T19:18:32.354Z,-3.10
2022-12-18T19:21:14.568Z,-3.10
2022-12-18T19:23:52.967Z,-3.00
2022-12-18T19:26:40.796Z,-3.00
2022-12-18T19:29:33.184Z,-2.90
2022-12-18T19:35:08.002Z,-2.80
2022-12-18T19:38:03.677Z,-2.80
2022-12-18T19:40:42.397Z,-2.70
2022-12-18T19:43:26.606Z,-2.80
2022-12-18T19:46:11.393Z,-2.80
2022-12-18T19:51:47.514Z,-2.80
2022-12-18T19:54:21.127Z,-2.80
2022-12-18T19:56:56.689Z,-2.70
2022-12-18T20:02:39.738Z,-2.70
2022-12-18T20:05:28.652Z,-2.80
2022-12-18T20:08:03.866Z,-2.70
2022-12-18T20:10:38.889Z,-2.70
2022-12-18T20:13:17.768Z,-2.70
2022-12-18T20:16:06.645Z,-2.80
2022-12-18T20:18:45.437Z,-2.80
2022-12-18T20:24:29.766Z,-2.80
2022-12-18T20:27:15.239Z,-2.70
2022-12-18T20:30:08.478Z,-2.70
2022-12-18T20:32:51.408Z,-2.60
2022-12-18T20:35:39.525Z,-2.60
2022-12-18T20:38:20.798Z,-2.60
2022-12-18T20:41:02.747Z,-2.50
2022-12-18T20:43:45.328Z,-2.50
2022-12-18T20:49:16.578Z,-2.30
2022-12-18T20:52:06.242Z,-2.20
2022-12-18T20:54:51.584Z,-2.10
2022-12-18T20:57:29.128Z,-2.10
2022-12-18T21:00:09.283Z,-2.10
2022-12-18T21:03:03.355Z,-2.00
2022-12-18T21:05:44.662Z,-2.00
2022-12-18T21:08:33.198Z,-2.00
2022-12-18T21:11:46.659Z,-1.90
2022-12-18T21:14:46.412Z,-2.10
2022-12-18T21:17:39.712Z,-2.10
2022-12-18T21:26:38.178Z,-2.10
2022-12-18T21:29:14.454Z,-2.10
2022-12-18T21:31:51.530Z,-1.90
2022-12-18T21:34:31.207Z,-1.90
2022-12-18T21:37:09.548Z,-1.80
2022-12-18T21:39:44.364Z,-1.70
2022-12-18T21:42:32.557Z,-1.60
2022-12-18T21:45:14.236Z,-1.60
2022-12-18T21:47:52.235Z,-1.60
2022-12-18T21:50:42.886Z,-1.60
2022-12-18T21:53:19.517Z,-1.60
2022-12-18T21:55:56.499Z,-1.60
2022-12-18T22:01:38.173Z,-1.70
2022-12-18T22:04:35.045Z,-1.80
2022-12-18T22:10:05.927Z,-1.90
2022-12-18T22:12:43.573Z,-1.90
2022-12-18T22:15:25.487Z,-1.90
2022-12-18T22:18:03.354Z,-1.90
2022-12-18T22:20:45.827Z,-1.80
2022-12-18T22:23:27.234Z,-1.80
2022-12-18T22:26:16.647Z,-1.80
2022-12-18T22:29:04.965Z,-1.70
2022-12-18T22:31:37.495Z,-1.70
2022-12-18T22:40:35.678Z,-1.60
2022-12-18T22:43:18.563Z,-1.60
2022-12-18T22:45:53.831Z,-1.50
2022-12-18T22:48:35.042Z,-1.50
2022-12-18T22:53:56.749Z,-1.50
2022-12-18T22:59:27.197Z,-1.60
2022-12-18T23:02:05.422Z,-1.50
2022-12-18T23:04:58.398Z,-1.40
2022-12-18T23:07:39.381Z,-1.40
2022-12-18T23:10:15.658Z,-1.30
2022-12-18T23:15:58.908Z,-1.40
2022-12-18T23:18:38.267Z,-1.40
2022-12-18T23:21:15.876Z,-1.40
2022-12-18T23:23:58.073Z,-1.40
2022-12-18T23:26:31.531Z,-1.30
2022-12-18T23:29:29.924Z,-1.30
2022-12-18T23:32:04.802Z,-1.40
2022-12-18T23:34:44.958Z,-1.40
2022-12-18T23:37:58.455Z,-1.50
2022-12-18T23:40:31.038Z,-1.60
2022-12-18T23:43:05.437Z,-1.50
2022-12-18T23:45:48.899Z,-1.60
2022-12-18T23:48:32.318Z,-1.40
2022-12-18T23:51:23.199Z,-1.30
2022-12-18T23:53:57.444Z,-1.30
2022-12-18T23:56:47.208Z,-1.30
2022-12-18T23:59:35.037Z,-1.30
